PreDB.eu

music predb - trance, techno, house, hardstyle, hardcore
updated: 2026-05-10 12:12:17
2026-05-10 09:14:31 Psychedelic 19 255 VA_-_Spirit_of_Sound_Vol.II_(Compiled_by_Neutron)-(MAHD048)-WEB-2018-ZzZz
2026-05-10 06:19:15 Techno 11 93 Riddler_and_Headcrusher_-_Chimera__Come_and_Get_It__Belerofon-(E.M.F._029)-WEB-2003-JUSTiFY_iNT
2026-05-10 06:18:48 Trance 10 27 ATB_-_Summer_Rain-(Kontor511)-Vinyl-2006-UNiCORN_INT
2026-05-10 06:18:17 Trance 9 59 Jean_Michel_Jarre-Oxygene_8_Incl_(Sunday_Club_Remix)-Promo-CDM-1997-NGR
2026-05-10 06:17:44 Trance 7 34 B.B.E.-Seven_Days_And_One_Week_(Kai_Tracids_Remix)-CDS-1999-1REAL
2026-05-10 06:17:11 Club quality .......: 192kbps, 44,1khz 11 69 Pulsedriver-I_Dominate_U-Re-Release-CDM-2001-BMI
2026-05-10 06:16:37 Trance 5 12 Joe_Kelly-Arora-Promo_Demo-2002-BPM
2026-05-10 02:40:07 Dance 14 128 VA_-_Beatport_Sounds_Human_-_Pamoja_Chart-WEB-2026
2026-05-10 02:39:38 Dance 23 212 VA_-_Beatport_Oliver_Heldens_-_Essentials_April_Chart-WEB-2026
2026-05-10 02:39:05 Dance 18 168 VA_-_Beatport_Lessovsky_-_April_Chart-WEB-2026
2026-05-10 02:38:31 Dance 14 120 VA_-_Beatport_Wave_Wave_-_Rogue_Chart-WEB-2026
2026-05-10 02:37:53 Dance 19 192 VA_-_Beatport_Jp_Candela_-_Worth_It_Chart-WEB-2026
2026-05-10 02:37:16 Dance 27 263 VA_-_Beatport_Mistajam_-_President_House_Chart-WEB-2026
2026-05-10 02:33:47 Trance 6 72 Extravagance_SL-Still_Here-(ABLD078)-WEB_FLAC-2026-SCMT_INT
2026-05-10 02:33:15 Trance 5 37 Eternal_Motion-Stardust-(MG0116)-SINGLE-WEB_FLAC-2026-SCMT
2026-05-10 02:33:00 Trance 14 167 VA_-_Beatport_Unwa_-_Zeal_Chart-WEB-2026
2026-05-10 02:32:07 Trance 24 293 VA_-_Beatport_Suzy_Solar_-_May_2026_Chart-WEB-2026
2026-05-10 02:30:20 Trance 14 134 VA_-_Beatport_Stanv_-_Lacrimosa_May_2026_Chart-WEB-2026
2026-05-10 02:29:36 Trance 14 171 VA_-_Beatport_Basil_OGlue_-_Venue_03_Chart-WEB-2026
2026-05-10 02:28:46 Trance 14 148 VA_-_Beatport_Allen_Watts_-_Anticipation_Chart-WEB-2026
2026-05-10 02:28:05 Trance 6 135 Yaroslav_Kulikov-Nibiru-(DMR00034)-WEB_FLAC-2026-SCMT_INT
2026-05-10 02:27:09 Trance 7 196 Atomic_Pulse_and_E-VO_(Psy)-Psychedelic_Love-(DCREP484)-WEB_FLAC-2026-SCMT
2026-05-10 02:26:01 Techno 104 1113 VA_-_Beatport_April_Top_100_Hard_Techno-WEB-2026
2026-05-10 02:23:40 Techno 20 213 VA_-_Beatport_Saymon_Gomez_-_Darkwave_Operation_Chart-WEB-2026
2026-05-10 02:23:12 Techno 14 127 VA_-_Beatport_Makabre_-_April_2026_Chart-WEB-2026
2026-05-10 02:22:50 Techno 22 218 VA_-_Beatport_Luis_Rodriguez_-_Party_All_Day_April_Chart-WEB-2026
2026-05-10 02:21:50 Techno 24 271 VA_-_Beatport_May_Best_New_-_Techno_(P-D)-WEB-2026
2026-05-10 02:21:08 Techno 20 211 VA_-_Beatport_May_Best_New_Hype_-_Tech_House-WEB-2026
2026-05-10 02:20:19 Techno 14 135 VA_-_Beatport_Roman_Adam_-_Blurred_Lines_Chart-WEB-2026
2026-05-10 02:19:23 Techno 16 155 VA_-_Beatport_Devid_Dega_-_Break-Fragments_Chart-WEB-2026
2026-05-10 02:18:56 Hardcore 5 7 Svenergy_-_Money_Drop_(Original_Mix)-(HTYRD012C)-WEB-2026
2026-05-10 02:18:30 Hardstyle 5 30 Like_Flow_-_Colors_Of_Hardstyle_(Extended_Mix)-(AVR2026029BP)-WEB-FLAC-2026
2026-05-10 02:17:57 Hardcore 5 7 Intenzo_-_Take_It_Back_(Original_Mix)-(HTYRD014)-WEB-2026
2026-05-10 02:17:24 Hardcore 7 95 Ciffix_-_Tha_Beat-(HBR006)-WEB-FLAC-2026
2026-05-10 02:16:50 Hardcore 5 6 Brainkick_-_Code_Zwart_(Edit)-(OFFRAGE400)-WEB-2026
2026-05-10 02:16:26 Hardcore 5 6 E.X.E.C.U.T.E_-_Never_Fading_Black_(Edit)-(OFFRAGE398)-WEB-2026
2026-05-10 02:16:00 Hardcore 5 8 NP_Source_and_DBL_-_Let_The_Music_B_Free_(Edit)-(BKRP101)-WEB-2026
2026-05-10 02:15:29 Hardcore 6 19 Teenage_Twins_-_Standing_In_The_Ocean-WEB-2026
2026-05-10 02:15:06 Hardcore 7 13 Xdasystem_and_SpeedBoy_and_Old_Raver_and_Hardfaiter_-_Crusade-WEB-2026
2026-05-10 02:14:23 Hardcore 5 8 The_Stunned_Guys_-_Beats_Time_(Stealth_Remix)-(TRAX0217-8)-WEB-2026
2026-05-10 02:13:53 Hardstyle 5 21 Showtek_and_The_Rocketman_-_Here_We_Go-(XTTC067)-WEB-FLAC-2026
2026-05-10 02:13:29 Hardcore 5 34 Rasper_-_The_Bagpiper-(Ycore50)-WEB-FLAC-2026
2026-05-10 02:13:09 Hardcore 7 33 Nightshifter_-_Sick-(GH-GOLD037)-WEB-2026
2026-05-10 02:12:32 Hardcore 5 35 Cruel_Intentions_-_Milano_Cant_Wait-(HYPED018)-WEB-FLAC-2026
2026-05-10 02:12:05 Hardcore 10 59 Anarchy_Audio_-_In_The_Night-(BF-209)-WEB-2026
2026-05-10 02:11:33 Hardcore 5 25 Refined_and_BenjaJ_-_Feelings_(Extended_Mix)-(TCR056)-WEB-FLAC-2026
2026-05-09 21:07:24 Techno 5 20 Air_Of_Wave-Hakken_Alliance-(AIR007)-WEB-2026-wAx
2026-05-09 19:21:52 Dance 18 727 Roger_Bonner-Dancing_Girl-24BIT-WEB-FLAC-2026-HFC
2026-05-09 19:20:53 Techno 18 1269 Argo74-Best_Of_And_Some_Fresh_Stuff-24BIT-WEB-FLAC-2026-HFC
2026-05-09 19:19:01 Dance 30 300 Ayana_Kai-Siyahamba-16BIT-WEB-FLAC-2026-HFC
2026-05-09 19:18:53 Techno 10 295 Andy_Rodrigues-Mission-16BIT-WEB-FLAC-2026-HFC
2026-05-09 19:17:51 Dance 23 201 Annette_Jordan_Noir-One_Heart_One_Soul-16BIT-WEB-FLAC-2026-HFC
2026-05-09 19:15:36 Techno 18 189 Argo74-Best_Of_And_Some_Fresh_Stuff-WEB-2026-ZLS
2026-05-09 19:15:33 Dance 4 20 Albert_Glimma-Love_Is_Good-SINGLE-16BIT-WEB-FLAC-2026-HFC
2026-05-09 19:12:15 Dance 18 129 Roger_Bonner-Dancing_Girl-WEB-2026-ZLS
2026-05-09 19:11:53 Dance 30 125 Ayana_Kai-Siyahamba-WEB-2026-ZLS
2026-05-09 19:10:49 Dance 23 86 Annette_Jordan_Noir-One_Heart_One_Soul-WEB-2026-ZLS
2026-05-09 19:09:02 Techno 10 106 Andy_Rodrigues-Mission-WEB-2026-ZLS
2026-05-09 19:08:52 Dance 16 136 Benny_Benassi_-_Feel_The_Bass_(Extended_Version)-WEB-2026-iDC
2026-05-09 19:06:54 Dance 4 8 Albert_Glimma-Love_Is_Good-SINGLE-WEB-2026-ZLS
2026-05-09 18:37:07 Trance 6 15 Wright_And_Davids_-_Above_The_World-(TER260522)-WEB-2026-FMC
2026-05-09 18:16:09 Trance 4 11 XiJaro_and_Pitch_x_Artento_Divini_pres._Bad_Boys-The_Blind_Eye_(Extended_Mix)-(REVR1293B)-SINGLE-WEB-2026-wAx
2026-05-09 18:15:43 Trance 7 50 Trance_Atlantic-Motion_and_Pandoras_Box-(DB222)-WEB-2026-wAx
2026-05-09 17:54:03 Techno 8 57 ZNM-My_Own_Land-(THOLOS059)-WEB-2026-FALCON
2026-05-09 17:53:27 Techno 5 12 Xidian_And_Lvca-HEATHENS-(RB023D)-SINGLE-WEB-2026-FALCON
2026-05-09 17:50:14 Trance 5 14 Bizzarro_Universe-Cosmotron-(CST005)-SINGLE-WEB-2025-FALCON
2026-05-09 16:54:06 Dance 7 21 DJ_PMJ_-_Batti_Le_Mani-(0825583056011)-WEB-IT-2026-ZzZz
2026-05-09 16:50:44 Dance 6 19 DJ_JPedroza_and_Lady_-_Mi_Dulce_Amor-(4069493825596)-WEB-IT-2026-ZzZz
2026-05-09 16:40:42 Dance 13 69 Donna_Lewis_and_David_Lowe_-_Wanderlust-(AZT0553)-WEB-2026-ZzZz
2026-05-09 16:37:23 Dance 7 16 Zaka_Tarigan_-_Velocity_Turbo-(BP0113907471658)-WEB-2026-ZzZz
2026-05-09 10:48:16 Techno 6 29 SVRP-No_Break-(DST017)-WEB-2026-PTC
2026-05-09 10:47:58 Techno 8 48 Mike_Dehnert-Slimsun_EP-(FW050)-WEB-2026-PTC
2026-05-09 10:14:10 Trance 9 61 Klubbingman_-_Welcome_To_The_Club-CDM-2001-NBD
2026-05-09 10:13:41 Trance 6 26 ATB_Feat_York-The_Fields_Of_Love-CDS-2001-GTA
2026-05-09 09:45:15 Trance 4 14 Paul_ICZ-What_Im_Feeling_(Extended_Version)-(ARXX007)-SINGLE-WEB-2026-wAx
2026-05-09 09:44:27 Hardstyle 5 28 Brutalizer_-_Run_Away_(Extended_Mix)-(NXXS077)-WEB-FLAC-2026
2026-05-09 09:40:28 Trance 5 10 Apelislin_and_Dist_-_Light_Remains-(DIST062)-SINGLE-WEB-2026-ZzZz
2026-05-09 09:39:08 Dance 7 34 Strega_-_Sing_with_all_my_friends_(The_Remixes)-(PP21)-WEB-2026-ZzZz
2026-05-09 09:35:36 Dance 6 19 Botnang_and_Esra_-_Mask_Off-(4068992698168)-WEB-2026-ZzZz
2026-05-09 09:34:18 Techno 6 20 wintr.exe_-_OLDFEELING-(RSRWNTR202608)-WEB-2026-ZzZz
2026-05-09 09:31:34 Dance 5 13 0landrys_-_Good_4_U-(354312514365)-SINGLE-WEB-2026-ZzZz
2026-05-09 09:19:19 Dance 5 5 Star_Guy_-_Dirty-(NOHRW2601080)-SINGLE-WEB-2026-ZzZz
2026-05-09 09:16:58 Dance 5 14 Hypersonic_-_Tell_Me_That_Is_Love-(10364096)-WEB-2026-ZzZz
2026-05-09 09:14:53 Dance 5 5 elsaaa_-_letting_u_down-(3701771116149)-SINGLE-WEB-2026-ZzZz
2026-05-09 09:14:50 Psychedelic 12 138 Krama-Made_In_Dancefloors-WEB-2018-FALCON
2026-05-09 09:11:51 Dance 5 6 DJ_MATHON_-_Summer_Love-(10362798)-SINGLE-WEB-2026-ZzZz
2026-05-09 09:09:44 Dance 5 7 Island_Sliders_-_Juicy_Life-(10362527)-SINGLE-WEB-2026-ZzZz
2026-05-09 09:08:32 Dance 5 6 manskraft_-_Wrong_Time-(ENG051)-SINGLE-WEB-2026-ZzZz
2026-05-09 08:56:52 Dance 5 15 Def_Ferrer_-_Chocolate_Veins_in_Zug-(CAT1785709)-SINGLE-WEB-DE-2026-ZzZz
2026-05-09 08:55:34 Dance 5 7 Anna_Bon_-_Just_Sunday-(AN004)-SINGLE-WEB-2026-ZzZz
2026-05-09 08:52:03 Dance 4 12 Vi_Huy_-_Slow_Fire-(4069493827521)-SINGLE-WEB-2026-ZzZz
2026-05-09 08:51:40 Trance 5 11 KronmDJ_-_LOSE_YOUR_MIND-(CAT1747836)-SINGLE-WEB-2026-ZzZz
2026-05-09 07:54:48 Dance 12 106 Elton_John_-_The_Remixes-WEB-2026-iDC
2026-05-09 07:54:39 Dance 7 29 Orbital_And_Confidence_Man_-_Re-Lush-WEB-2025-iDC
2026-05-09 07:54:22 Dance 6 21 DJ_Shorty_-_Live_Your_Life_(Lyl)-WEB-2026-iDC
2026-05-09 07:44:59 Dance 11 72 Karisma_-_Abc-(MTF2643)-WEB-2026-ZzZz
2026-05-09 07:43:19 Trance 5 9 Daphnia_-_Break_the_Cycle-(CLT399)-SINGLE-WEB-2026-ZzZz
2026-05-09 07:14:12 Dance 6 24 HardestRaver-Another_Way_Back_Home-WEB-2026-MARiBOR
2026-05-09 07:14:01 Dance 5 16 HardestRaver-Girls_Wanna_Have_Fun-WEB-2025-MARiBOR
2026-05-09 07:13:51 Dance 6 24 HardestRaver-Neon_Hearts-WEB-2026-MARiBOR
2026-05-09 07:13:46 Dance 4 5 HardestRaver-Erika_2k26-SINGLE-WEB-2025-MARiBOR
2026-05-09 07:13:36 Dance 7 31 HardestRaver-Girls_Night_Overdrive_(Incl._Remixes)-WEB-2026-MARiBOR
2026-05-09 07:13:14 Dance 4 10 HardestRaver-Mafia_Of_Roses-SINGLE-WEB-2026-MARiBOR
2026-05-09 07:13:14 Dance 4 8 HardestRaver-Its_Raining_Tacos-SINGLE-WEB-2025-MARiBOR
2026-05-09 07:13:02 Dance 8 41 HardestRaver-Neon_Hearts_(Remix_Edition_Vol._01)-WEB-2026-MARiBOR
2026-05-09 07:12:53 Dance 6 24 HardestRaver-Pink_Waves-WEB-2026-MARiBOR
2026-05-09 07:12:40 Dance 8 39 HardestRaver-Pink_Dreams_Forever_(Remix_Edition)-WEB-2026-MARiBOR
2026-05-09 07:12:40 Dance 5 14 HardestRaver-Pink_Dreams_Forever-WEB-2025-MARiBOR
2026-05-09 07:12:18 Dance 5 20 HardestRaver-Sexy_Lady-WEB-2025-MARiBOR
2026-05-09 07:12:15 Dance 5 14 HardestRaver-Stray_Cat_Queens_2.0_(More_Besties)-WEB-2025-MARiBOR
2026-05-09 07:11:51 Dance 6 28 HardestRaver-Stray_Cat_Queens-WEB-2025-MARiBOR
2026-05-09 07:11:49 Dance 5 14 HardestRaver-Starlight_Rebel-WEB-2026-MARiBOR
2026-05-09 07:11:32 Dance 5 15 HardestRaver-Sugarheart_Pink_Explosion-WEB-2025-MARiBOR
2026-05-09 07:11:23 Dance 4 10 HardestRaver-Wild_Ghost_Riders-SINGLE-WEB-2026-MARiBOR
2026-05-09 07:11:22 Dance 5 15 HardestRaver-Warrior_Of_The_Crimson_Sky-WEB-2025-MARiBOR
2026-05-09 07:00:11 Dance 13 384 Peat_Jr._and_Fernando_feat._Csilla-Almodj_Egy_Szebb_Vilagot_(Remastered)-HU-16BIT-WEB-FLAC-2026-MARiBOR
2026-05-09 06:59:58 Dance 19 549 Peat_Jr._and_Fernando_ft_Sheela-Nyari_Este__Messze_Hiv_A_Vegtelen__Let_It_Be_Love-HU-16BIT-WEB-FLAC-2026-MARiBOR
2026-05-09 06:59:58 Techno 7 212 Nicky_Sun-Meet_Again-(DM0019)-24BIT-WEB-FLAC-2025-MARiBOR
2026-05-09 06:59:57 Dance 5 84 89ers-I_Come_Undone-(77169062KON)-24BIT-WEB-FLAC-2026-MARiBOR
2026-05-09 06:59:38 Trance 5 80 Sal_De_Sol-Dark_Cloud_Rises_(Pulsedriver_Remix)-24BIT-WEB-FLAC-2026-MARiBOR
2026-05-09 06:59:35 Dance 7 136 Peat_Jr._and_Fernando-Akarom_Meg_(Remastered)-HU-16BIT-WEB-FLAC-2026-MARiBOR
2026-05-09 06:59:06 Dance 13 398 Peat_Jr._and_Fernando-Szerelem_Szall...-(Remastered)-HU-16BIT-WEB-FLAC-2026-MARiBOR
2026-05-09 06:58:48 Dance 6 76 Fernando_x_ReNa-Repits_El_Messze_(Club_Pack)-HU-16BIT-WEB-FLAC-2026-MARiBOR
2026-05-09 06:56:36 Dance 13 117 Peat_Jr._and_Fernando_feat._Csilla-Almodj_Egy_Szebb_Vilagot_(Remastered)-WEB-HU-2026-MARiBOR
2026-05-09 06:56:08 Dance 6 24 Fernando_x_ReNa-Repits_El_Messze_(Club_Pack)-WEB-HU-2026-MARiBOR
2026-05-09 06:56:05 Dance 15 142 Peat_Jr._and_Fernando_feat._Csilla-Vegtelen_Nyar_(Remastered)-WEB-HU-2026-MARiBOR_INT
2026-05-09 06:56:00 Dance 13 123 Peat_Jr._and_Fernando-Szerelem_Szall...(Remastered)-WEB-HU-2026-MARiBOR
2026-05-09 05:58:37 Dance 5 38 Suae_x_Technikore-In_The_Pool-(EB007)-16BIT-WEB-FLAC-2026-MARiBOR
2026-05-09 05:58:33 Dance 5 73 W_and_W_x_AXMO-Jump_To_The_Stars-(RVC297)-24BIT-WEB-FLAC-2026-MARiBOR
2026-05-09 02:55:53 Dance 24 243 VA_-_Beatport_May_Best_New_-_Indie_Dance-WEB-2026
2026-05-09 02:55:14 Dance 14 130 VA_-_Beatport_Giza_Djs_-_April_Drops_Chart-WEB-2026
2026-05-09 02:54:46 Dance 20 171 VA_-_Beatport_Berkant_But_Why.._-_Sunset_Without_Us._Vibe_Chart-WEB-2026
2026-05-09 02:53:57 Dance 33 328 VA_-_Beatport_Lizzie_Curious_-_Mid-April_Energy_Chart-WEB-2026
2026-05-09 02:52:47 Dance 14 119 VA_-_Beatport_Hidden_Empire_-_Huntsman_Chart-WEB-2026
2026-05-09 02:52:15 Dance 14 124 VA_-_Beatport_Anthony_P._(Ch)_-_The_Way_Of_Life_Chart-WEB-2026
2026-05-09 02:48:11 Trance 14 138 VA_-_Beatport_Paul_Denton_-_Future_Top_10_Chart-WEB-2026
2026-05-09 02:47:38 Trance 14 150 VA_-_Beatport_N-Sking_-_Euphony_Remix_Chart-WEB-2026
2026-05-09 02:47:05 Trance 14 124 VA_-_Beatport_Maike_Depas_-_April_2026_Chart-WEB-2026
2026-05-09 02:46:18 Trance 34 417 VA_-_Beatport_Johan_Gielen_-_Trance_Favorites_April_Chart-WEB-2026
2026-05-09 02:44:52 Trance 24 260 VA_-_Beatport_May_Best_New_-_Trance-WEB-2026
2026-05-09 02:43:33 Trance 5 40 Eugenio_Tokarev-Into_The_Void-(NM092)-SINGLE-WEB_FLAC-2026-SCMT_INT
2026-05-09 02:42:54 Trance 6 71 Digital_Drift-Red_Kite-(MND377)-WEB_FLAC-2026-SCMT_INT
2026-05-09 02:42:28 Trance 6 108 Alexstatic-Everythings_Computer-(PTND037)-WEB_FLAC-2026-SCMT
2026-05-09 02:41:51 Trance 5 52 Logen-Step_For_Life-(TIMEWARP327)-SINGLE-WEB_FLAC-2026-SCMT_INT
2026-05-09 02:40:48 Techno 24 238 VA_-_Beatport_The_Tech_House_Shortlist_-_April-WEB-2026
2026-05-09 02:39:45 Techno 19 186 VA_-_Beatport_May_Best_New_-_Tech_House-WEB-2026
2026-05-09 02:38:54 Techno 104 1343 VA_-_Beatport_April_Top_100_Minimal_Deep_Tech-WEB-2026
2026-05-09 02:36:16 Techno 14 137 VA_-_Beatport_Jordano_Roosevelt_-_Satisfaction_Chart-WEB-2026
2026-05-09 02:35:37 Techno 14 123 VA_-_Beatport_Siasia_-_April_Chart-WEB-2026
2026-05-09 02:35:20 Techno 18 201 VA_-_Beatport_Rpn_-_Energymaker_On_Spectrum_On_Air_Radio_03.05.26_Chart-WEB-2026
2026-05-09 02:34:57 Techno 24 259 VA_-_Beatport_Hioll_-_April_2026_Chart-WEB-2026
2026-05-09 02:34:18 Techno 14 129 VA_-_Beatport_Merk_(Ita)_-_Acid_Things_Chart-WEB-2026
2026-05-09 02:33:39 Hardcore 5 8 Refined_and_BenjaJ_-_Feelings_(Extended_Mix)-(TCR056)-WEB-2026
2026-05-09 02:26:43 Hardcore 5 31 Nobody_-_Step_On_(Extended_Mix)-(JH409)-WEB-FLAC-2026
2026-05-09 02:26:19 Hardcore 5 23 DRS_and_WHOAMI_-_I_Feel_Hardcore_(Extended_Mix)-(TSR207)-WEB-FLAC-2026
2026-05-09 02:26:03 Hardstyle 5 9 Axel_Bourne_-_Zenith_(Extended_Mix)-(RB020E)-WEB-2026
2026-05-09 02:17:39 Hardcore 5 10 Bombsquad_and_Nolz_-_The_Awakening_(Official_Harmony_Of_Hardcore_2026_Anthem)_(Edit)-(HOH002)-WEB-2026
2026-05-09 02:17:06 Hardstyle 5 7 Funkhauser_-_Till_The_Morning-WEB-2026
2026-05-09 02:16:39 Hardcore, hardstyle 5 8 Matt_Scratch_-_Dunkin_Dj_Doghats_From_Durham-(A4T202614)-WEB-2026
2026-05-09 02:16:17 Hardcore 5 35 Tommyknocker_and_Revenja_-_Pura_Destruccion-(NM009)-WEB-FLAC-2026
2026-05-09 02:15:48 Hardstyle 5 6 Unit-E_and_Dr4matic_-_Ascension_(Edit)-(TLWN095)-WEB-2026
2026-05-09 02:15:19 Hardcore 5 7 Andy_The_Core_and_Criminal_Discipline_-_Nothing_(Edit)-(TSR208)-WEB-2026
2026-05-09 02:14:41 Hardstyle 5 36 Anamorphic_-_Wonderland_-_Anthem_Eskape_2026-(HSF166)-WEB-FLAC-2026
2026-05-09 02:14:07 Hardcore 5 27 Revolxist_-_Apocalypse-(REV020)-WEB-FLAC-2026
2026-05-09 02:13:34 Hardcore 5 12 Rasper_-_The_Bagpiper-(Ycore50)-WEB-2026
2026-05-09 02:12:55 Hardcore 7 29 Ciffix_-_Tha_Beat-(HBR006)-WEB-2026
2026-05-09 02:12:28 Hardstyle 5 10 Anamorphic_-_Wonderland_-_Anthem_Eskape_2026-(HSF166)-WEB-2026
2026-05-09 02:11:44 Hardstyle 6 57 2_Brothers_Of_Hardstyle_and_Double_F-Ect_-_The_Theory_Of_Noise-(HBR1010)-WEB-FLAC-2026
2026-05-09 01:08:48 Techno 5 14 ArtLif3-Orb_Seduction-(LIF3CODE027)-SINGLE-WEB-2026-PTC
2026-05-09 00:00:50 Trance 5 12 Peter_Apple-Hypnotic_Tact-(DE222)-SINGLE-WEB-2026-PTC
2026-05-09 00:00:19 Techno 6 31 Mars_Tedak-Shark-(JKBL059)-WEB-2026-PTC
2026-05-08 23:59:01 Techno 5 9 ChUk330-330_Universal-(PR0089)-SINGLE-WEB-2026-PTC
2026-05-08 23:38:17 Techno 7 42 WhYsDiLL-Plans_for_the_Future-(MEET068)-WEB-2026-PTC
2026-05-08 23:37:00 Trance 6 21 Lexy_Chae-Shattered_Illusion-(RBR171)-WEB-2026-PTC
2026-05-08 20:55:07 Techno 9 56 VLTN-Rock_That_Shit-(NRS069)-WEB-2026-FALCON
2026-05-08 20:54:44 Techno 12 123 VA-Getafix_Records_Our_Time_Is_Now-23_Years-(FIX023)-WEB-2026-FALCON
2026-05-08 20:53:25 Techno 5 11 Two_Half_Broke_Dudes-Der_Erste_Mensch_Im_All-(DSRD826T)-SINGLE-WEB-2026-FALCON
2026-05-08 20:52:54 Techno 5 11 Thick_As_Thieves-Hyperspeed-(SR301)-SINGLE-WEB-2026-FALCON
2026-05-08 20:52:19 Techno 7 31 Tham-Ego_Death-(TT047B)-WEB-2026-FALCON
2026-05-08 20:51:51 Techno 6 23 Stoltenhoff_And_Solyd-Hot_Beats-(AGONY039DL)-WEB-2026-FALCON
2026-05-08 20:51:19 Techno 7 31 Rich-Let_The_Bass_Go-(SYN006)-WEB-2026-FALCON
2026-05-08 20:50:03 Dance 6 26 Simone_Jay_-_Luv_Thang-(MTF_26.35)-WEB-2026-iDC
2026-05-08 20:49:36 Techno 5 16 DJ_Noradrenalin-In_My_Techno_Club-(3762095)-SINGLE-WEB-2026-FALCON
2026-05-08 20:48:32 Techno 6 26 Carl_Shorts_And_909_RIOT-Mad_WOW-(RES113)-WEB-2026-FALCON
2026-05-08 20:47:26 Techno 5 9 A_S_Y_S-My_Name-(4069977360681)-SINGLE-WEB-2026-FALCON
2026-05-08 19:36:41 Dance 5 6 Alpha_Eclipse_-_I_Walk_This_Road_Alone-(10364211)-SINGLE-WEB-2026-ZzZz
2026-05-08 19:31:55 Dance 5 6 Da_Buzz_-_I_Promised_Myself-(OceanmusicgroupNo047)-SINGLE-WEB-2026-ZzZz
2026-05-08 19:26:07 Dance 5 6 Fred_Genna_-_Gravity_of_Love-(2026A015)-SINGLE-WEB-2026-ZzZz
2026-05-08 19:16:57 Dance 6 18 Volom_and_Bass_-_Statues-(DR094)-WEB-2026-ZzZz
2026-05-08 19:11:15 Dance 7 31 Vicolo_Boys_-_The_Way_Is_My_House-(PGR035)-WEB-2026-ZzZz
2026-05-08 19:10:04 Dance 6 31 Stashion_-_Youre_Going_to_Die_Soon-(SDM254)-WEB-2026-ZzZz
2026-05-08 19:08:21 Dance 9 36 CAM_GIRL_-_A_Big_Deal-(SCRM010)-WEB-2026-ZzZz
2026-05-08 17:06:52 Dance 4 6 Paul_Kalkbrenner_Feat_Norma_Jean_Martine_-_Time_To_Dance-(G010005768073I)-SINGLE-WEB-2026-FMC
2026-05-08 16:29:31 Dance 5 8 DJ_Silverado_-_New_Tomorrow-(XDMC0126)-SINGLE-WEB-2026-ZzZz
2026-05-08 16:27:12 Trance 5 15 Simonic_X_talkofthetown_-_Drive_Me_Home-(FYH251)-SINGLE-WEB-2026-FMC
2026-05-08 16:26:22 Trance 5 13 Harshil_Kamdar_-_The_Plan-(BDT7069E)-SINGLE-WEB-2026-FMC
2026-05-08 16:25:35 Trance 6 23 Dizmaster_-_Saints-(JMJR186X)-WEB-2026-FMC
2026-05-08 16:20:45 Dance 5 5 Tim_Savey_-_Dam_Dam_Da-(4068992709277)-SINGLE-WEB-2026-ZzZz
2026-05-08 16:14:14 Techno 10 415 RUman-Concrete_Cube-(L1R030)-24BIT-WEB-FLAC-2026-PTC
2026-05-08 16:07:39 Techno 10 216 VA-TUTU_X_03-TUTUXVA03-16BIT-WEB-FLAC-2026-WAVED
2026-05-08 16:06:28 Techno 8 164 Isaiah-Pollution_EP-ISHEP09-16BIT-WEB-FLAC-2026-WAVED
2026-05-08 16:04:47 Techno 6 170 Fernie_And_Van_Morph-Destinations_EP_22-PITCH59-24BIT-WEB-FLAC-2026-WAVED
2026-05-08 16:03:37 Techno 13 446 DJ_Emerson-Warehouse_Jams-MFLP008-16BIT-WEB-FLAC-2026-WAVED
2026-05-08 16:02:34 Techno 13 133 DJ_Emerson-Warehouse_Jams-MFLP008-WEB-2026-WAV
2026-05-08 16:01:08 Techno 8 281 Flour-Fallen_Angel-EXH018-24BIT-WEB-FLAC-2026-WAVED
2026-05-08 16:01:01 Techno 8 51 Flour-Fallen_Angel-EXH018-WEB-2026-WAV
2026-05-08 16:00:57 Dance 5 6 Garcia_-_Vamonos_2.0-(DC009)-SINGLE-WEB-2026-ZzZz
2026-05-08 15:57:57 Dance 4 4 Max_and_Johann_-_Balkan_Tacata-(4251777717387)-SINGLE-WEB-2026-ZzZz
2026-05-08 15:52:54 Dance 5 6 Taigherwuds_-_Stroopwafels-(10363831)-SINGLE-WEB-NL-2026-ZzZz
2026-05-08 15:37:29 Dance 5 7 K-391_-_SUNSHINE-(20261)-SINGLE-WEB-2026-ZzZz
2026-05-08 15:34:27 Techno 6 25 Czar-Time_to_Fall-(EONS027)-WEB-2026-PTC
2026-05-08 15:33:44 Techno 7 40 Mike_Mauri-Prelude-(IN023)-WEB-2026-PTC
2026-05-08 15:33:22 Techno 10 74 CV1_and_BONDE-Rituals-(NACHT004)-WEB-2026-PTC
2026-05-08 15:33:17 Techno 8 56 Bruno_Sanchioni-Capture_6-(ARTMAX006)-WEB-2026-PTC
2026-05-08 15:32:44 Techno 7 37 Aphotic-Music_Is_My_Drug_EP-(SYN005)-WEB-2026-PTC
2026-05-08 15:16:15 Dance 5 7 Liam_Cross_-_Fear_Of_Lost-(LCM260508)-SINGLE-WEB-2026-ZzZz
2026-05-08 15:12:42 Trance 6 22 Michael_Berczelly_-_Trouble-(GIMMICK214)-WEB-2026-ZzZz
2026-05-08 15:10:45 Dance 5 4 KNJA_-_Lets_Imagine-(DGR161)-SINGLE-WEB-2026-ZzZz
2026-05-08 15:08:17 Techno 17 176 Autonoe-Masked_Ball-(SUBSIST279D)-WEB-2026-PTC
2026-05-08 15:05:05 Dance 5 7 Retropenu_feat_Drome_-_Chariots_of_Love-(3618110161756)-SINGLE-WEB-2026-ZzZz
2026-05-08 14:47:19 Dance 5 6 M.a.d.c_-_Hey_Now_(Gonna_Be_Alright)-(KFS383)-SINGLE-WEB-2026-ZzZz
2026-05-08 14:39:30 Dance 5 5 Andy_Ztoned_and_Lexxxi_-_Lexxxi_Sound-(10364435)-SINGLE-WEB-2026-ZzZz
2026-05-08 14:36:10 Trance 5 15 DJ_Overlead_-_The_Reality_of_a_Dream-(10363505)-SINGLE-WEB-2026-ZzZz
2026-05-08 14:35:03 Techno 6 28 Dee_(IN)-Your_Dream-(SW079)-WEB-2026-PTC
2026-05-08 14:30:51 Dance 5 6 Iceleak_-_All_I_See_Is_You-(697)-SINGLE-WEB-2026-ZzZz
2026-05-08 14:21:28 Techno 5 14 LOGAN-Disintegrate_Sequence-(M4S033)-SINGLE-WEB-2026-PTC
2026-05-08 14:13:32 Dance 6 15 MR_Werback_-_Remember_The_Night-(PPL165)-WEB-2026-ZzZz
2026-05-08 14:05:41 Dance 6 8 Zachz_Winner_-_Bang_Bang_Bang_-_Silly_Funk-(3618111182903)-WEB-2026-ZzZz
2026-05-08 14:03:14 Dance 5 8 redfeel_-_Stay-(MMR470)-SINGLE-WEB-2026-ZzZz
2026-05-08 14:01:58 Dance 5 10 Lee_Butler_-_Sexy_Dancer_(Edit)-(RMRS0014)-SINGLE-WEB-2026-ZzZz_iNT
2026-05-08 13:54:36 Dance 16 83 Konshens-Pool_Party_2.0-WEB-2026-PaB
2026-05-08 13:51:18 Trance 6 13 Sullivan_De_Morro_-_Hear_My_Voice_EP-(ITPU212)-WEB-2026-ZzZz
2026-05-08 13:41:58 Dance 8 39 FrankC_-_Psy_Like_a_Egyptian-(LADAL26A21)-WEB-2026-ZzZz
2026-05-08 13:40:13 Techno 6 32 Central_De_Ruido-Movimiento-(BLR347)-WEB-2026-PTC
2026-05-08 13:39:24 Techno 9 64 Craciun-Like_We_Wrote-(RAW260509)-WEB-2026-PTC
2026-05-08 13:38:59 Dance 6 14 Spat_-_Set_Me_Free-(LFT450)-WEB-2026-ZzZz
2026-05-08 13:35:54 Dance 5 9 Lumberjack_-_Now_That_Youre_Gone-(3618110804462)-SINGLE-WEB-2026-ZzZz
2026-05-08 13:32:03 Dance 6 19 Dream_Frequency_and_Wes_P_feat_Sherie_Hartill_-_Every_Time_You_Go-(AI050)-WEB-2026-ZzZz
2026-05-08 13:30:25 Dance 6 11 SHIMA_-_KARMA_(Eyezic_Remix)-(3466015)-WEB-2026-ZzZz
2026-05-08 13:24:53 Techno 10 88 Nemesis-Terapia-(SOL011D)-WEB-2026-PTC
2026-05-08 13:13:22 Trance 5 13 Matty_Ralph_And_JOKESONYOU_-_Heaven_(Extended_Mix)-SINGLE-WEB-2026-FMC
2026-05-08 13:10:28 Dance 5 9 Eric_Mwarzeni_-_Sunshine_(Oh-Eh_Oh-Eh)-(BIPCLUB4030)-SINGLE-WEB-2026-ZzZz
2026-05-08 13:09:21 Dance 5 6 Axel_Walker_-_Summer_Feelings-(BIPCLUB4028)-SINGLE-WEB-2026-ZzZz
2026-05-08 13:08:31 Dance 5 7 Assa_Cole_-_Gbe_Mi_Soke-(BIPCLUB4029)-SINGLE-WEB-2026-ZzZz
2026-05-08 13:07:20 Dance 5 9 Nordic_Empire_-_Summer_In_Our_Bones-(BIPCLUB4026)-SINGLE-WEB-2026-ZzZz
2026-05-08 13:03:20 Dance 5 8 Nils_Van_Zandt_-_Electrified_(Official_Electra_Festival_Anthem)-(BIPCLUB4051)-SINGLE-WEB-2026-ZzZz
2026-05-08 12:49:16 Trance 5 16 Chaos_Theory_-_Take_Flight-(HTE360)-SINGLE-WEB-2026-FMC
2026-05-08 12:48:55 Trance 5 7 B_Jones_And_MIDI_Kittyy_-_Universe_(Trust_The_Plan)-(BH17480)-SINGLE-WEB-2026-FMC
2026-05-08 12:48:23 Trance 5 14 Adam_Beyer_X_Mark_Reeve_-_Love_Within-(DC349)-SINGLE-WEB-2026-FMC
2026-05-08 12:24:50 Dance 6 10 WhoKnows_x_Emily_Fox_x_Kuokka_-_I_Run-(FHC2780)-WEB-2026-ZzZz
2026-05-08 12:22:51 Dance 6 10 Kamix_x_Cl04k_x_DVSTG_-_Unholy-(FHC2695)-WEB-2026-ZzZz
2026-05-08 12:19:57 Dance 5 8 Djhalloween_x_Joel_Garpaker_-_Wake_me_up-(RU409593)-SINGLE-WEB-2026-ZzZz
2026-05-08 12:12:33 Dance 6 26 ITALIAN_MINDZ_feat_Sandrexx_-_Broke_My_Heart-(4069493840681)-WEB-IT-2026-ZzZz
2026-05-08 12:01:46 Dance 5 6 Silence_-_Overdrive-(3618110357982)-SINGLE-WEB-2026-ZzZz
2026-05-08 10:41:28 Dance 5 7 Albi_and_Jutty_Ranx_-_I_C_U-(8014090119339)-SINGLE-WEB-2026-ZzZz
2026-05-08 10:40:10 Dance 5 7 SAILO_-_Khaya-(RAVE219C)-SINGLE-WEB-2026-ZzZz
2026-05-08 10:27:41 Hardcore 14 110 Armageddon_Project_-_Strobe_Lit_Prophets-(T3RDM0481)-WEB-2026-SRG
2026-05-08 10:21:37 Hardcore 5 8 Desolate_One_-_The_Vibe_(Habion_Remix)-(AFT3R204)-SINGLE-WEB-2026-SRG
2026-05-08 10:12:40 Hardcore 5 8 Valhalla_And_Manifest_Destiny_-_The_Antidote-(SPM149)-SINGLE-WEB-2026-SRG
2026-05-08 10:10:01 Techno 6 14 GLDY_LX_And_Acina_-_Baddie-WEB-2026-SRG
2026-05-08 10:08:28 Techno 5 5 Nutkix_-_Slownut_(To_The_Sky)-(RAWR077)-SINGLE-WEB-2026-SRG
2026-05-08 10:03:49 Techno 5 8 LNY_TNZ_And_Lady_Faith_-_Night_Predator-(BSC136B)-SINGLE-WEB-2026-SRG
2026-05-08 10:01:28 Techno 7 24 Mark_Zolden_-_What_Never_Happened_EP_Vol._03-(RESPECTHARDSTYLE033)-WEB-2026-SRG
2026-05-08 09:58:12 Techno 5 10 D-Verze_And_Criminal_Mayhem_-_Time_(Spitfire_Remix)-(SPOON440)-SINGLE-WEB-2026-SRG
2026-05-08 09:55:22 Techno 5 7 UNRAVELD_-_Annihilated-(DT305)-SINGLE-WEB-2026-SRG
2026-05-08 09:51:47 Techno 5 10 MadMIze_-_We_Are_Harder_Force-(GBR315)-SINGLE-WEB-2026-SRG
2026-05-08 09:47:51 Techno 5 5 Fraw_-_VOICES_IN_MY_HEAD-(GBD554)-SINGLE-WEB-2026-SRG
2026-05-08 09:45:02 Hardcore 5 9 AniMe_-_LEVITATE-(TDM061)-SINGLE-WEB-2026-SRG
2026-05-08 09:43:09 Hardcore 5 8 Kronos_-_HYMN_4_THE_WKND-(DQ064PRO)-SINGLE-WEB-2026-SRG
2026-05-08 09:39:59 Techno 6 17 Devin_Wild_-_Will_I_Ever_Dare_(To_Lose_Control)-(SCAN702)-WEB-2026-SRG
2026-05-08 09:36:24 Techno 5 7 ERABREAK_-_Open_Your_Eyes-(SCAN701)-SINGLE-WEB-2026-SRG
2026-05-08 09:33:58 Techno 5 6 Level_One_-_Live_Or_Die-(SCAN703)-SINGLE-WEB-2026-SRG
2026-05-08 09:32:03 Techno 5 6 The_Straikerz_And_TOZA_-_STOP_CRYING-(ACR101)-SINGLE-WEB-2026-SRG
2026-05-08 09:29:10 Techno 8 33 The_Elite_-_We_Are_Reborn_EP-(DWX2132)-WEB-2026-SRG
2026-05-08 09:25:37 Techno 5 9 Vertile_And_The_Saints_-_Awake_Me_(Official_Intents_Festival_2026_Anthem)-(INT026)-SINGLE-WEB-2026-SRG
2026-05-08 09:19:30 Techno 5 8 Envine_And_Faizar_-_A_Million_Dreams-(MH072E)-SINGLE-WEB-2026-SRG
2026-05-08 09:01:00 Trance 5 14 Rafael_Osmo-The_Messenger_2026-(RO046)-SINGLE-WEB-2026-FALCON
2026-05-08 09:00:27 Trance 5 15 Eli_Spiral-Lava_Tube-(PFM007)-SINGLE-WEB-2026-FALCON
2026-05-08 08:59:43 Trance 5 12 Aandv-Decency_Prevail-(CFLOW279)-SINGLE-WEB-2026-FALCON
2026-05-08 08:41:30 Trance 5 40 Leon_Bolier-Trouble-MM16790-SINGLE-16BIT-WEB-FLAC-2026-WAVED
2026-05-08 08:40:25 Trance 13 149 VA-Not_For_Kids-(10362568)-WEB-2026-FALCON
2026-05-08 08:40:20 Trance 5 17 Webra-Kontaktum_Astronomical_Remix-(SNK282)-SINGLE-WEB-2026-FALCON
2026-05-08 08:39:43 Techno 6 67 Francesco_Tamburrano-Sound_Addicted-(LF375)-16BIT-WEB-FLAC-2026-AGITB
2026-05-08 08:39:16 Trance 5 13 Synesthesia-In_Between-(CAT1779976)-SINGLE-WEB-2026-FALCON
2026-05-08 08:38:49 Trance 4 17 Skryre_And_Ilmush-Lions_Gate-(PHODIGI061)-SINGLE-WEB-2026-FALCON
2026-05-08 08:38:27 Trance 5 10 Skazi_And_Junam-I_Find_You_(Extended_Version)-(9999900428124)-SINGLE-WEB-2026-FALCON
2026-05-08 08:37:59 Trance 5 16 Sektor_Four-Goa_Error-(PSYINS018)-SINGLE-WEB-2026-FALCON
2026-05-08 08:37:17 Techno 8 353 cv313_And_Federsen-Altering_Dimensions_Part_Two-(AD007)-24BIT-WEB-FLAC-2026-AGITB
2026-05-08 08:37:06 Trance 5 16 Sarser-Heavy_People-(OVNIEP788)-SINGLE-WEB-2026-FALCON
2026-05-08 08:36:34 Trance 5 19 S.P.L_Project-Forest_Dance-(TIME195)-SINGLE-WEB-2026-FALCON
2026-05-08 08:36:02 Trance 5 17 Raumgeist-Sonar_Stimulation-(ITD359)-SINGLE-WEB-2026-FALCON
2026-05-08 08:35:57 Psychedelic 12 156 Ramarim-Infinito-(SMNRC037)-WEB-2026-FALCON
2026-05-08 08:35:13 Psychedelic 5 14 Psycanalise-Shara-(687)-SINGLE-WEB-2026-FALCON
2026-05-08 08:35:08 Techno 9 154 Frenk_Dublin-The_Star_Island_EP-(DUBCOM051D)-16BIT-WEB-FLAC-2026-AGITB
2026-05-08 08:34:32 Trance 7 69 Mystika_And_Orisma-Lost_In_Light_The_Remixes-(SEN032)-WEB-2026-FALCON
2026-05-08 08:34:09 Trance 14 174 Logen-Alien_Signal-(TIMEWARP328)-WEB-2026-FALCON
2026-05-08 08:33:27 Techno 8 110 Bastian_Tierr-A_Moment_Of_Reflection-(SLP068)-16BIT-WEB-FLAC-2026-AGITB
2026-05-08 08:33:26 Trance 5 16 Kritical_Hit-Elevate_Culture-(3527126)-SINGLE-WEB-2026-FALCON
2026-05-08 08:32:48 Trance 5 19 Goa_Doc_And_Doctorspook_And_Mou5zyzz_And_Mou5emo-Goddess_Isis_Sharmatix_Remix-(OVNIEP787)-SINGLE-WEB-2026-FALCON
2026-05-08 08:32:18 Trance 5 17 Depresslogia-The_Silence-(TOOLOST3000969779)-SINGLE-WEB-2026-FALCON
2026-05-08 08:32:17 Trance 5 14 Ellez_Ria-Mark_2-(DAMOVEMENT03474)-SINGLE-WEB-2026-FALCON
2026-05-08 08:32:16 Trance 5 17 Gigi_Andsynkronic-Shameless-(BLKLSG042)-SINGLE-WEB-2026-FALCON
2026-05-08 08:31:53 Psychedelic 5 15 Ghost_Rider_And_Phaxe-Falling_Vegas_Remix-(VOOX044)-SINGLE-WEB-2026-FALCON
2026-05-08 08:30:03 Trance 5 15 Cloud7-Lost_Zeilex_Remix-(BTRDR1595)-SINGLE-WEB-2026-FALCON
2026-05-08 08:29:34 Psychedelic 5 17 Barby-Scavenger-(SPIT434)-SINGLE-WEB-2026-FALCON
2026-05-08 08:29:32 Trance 5 15 Bubble-The_Story_Of_Madness-(859736537720)-SINGLE-WEB-2026-FALCON
2026-05-08 08:28:25 Trance 5 19 Ancestral_And_Biological_And_Ital-Shamanic_Culture-(PROPHECY007)-SINGLE-WEB-2026-FALCON
2026-05-08 08:02:04 Techno 7 81 Ross_Hillier-Anhedonia_EP-UT113-16BIT-WEB-FLAC-2026-WAVED
2026-05-08 08:02:01 Trance 5 17 Calantha-Morphing_Realities-JOOF550-SINGLE-WEB-2026-WAV
2026-05-08 08:01:11 Trance 5 48 Calantha-Morphing_Realities-JOOF550-SINGLE-16BIT-WEB-FLAC-2026-WAVED
2026-05-08 07:57:54 Dance 4 65 DJ_Mico_x_Mount_Sound_Feat._MC_Tiramisu-Sierra_Madre_Del_Sur-ES-16BIT-WEB-FLAC-2026-MARiBOR
2026-05-08 07:57:50 Dance 5 81 Arctic_Moon-What_Im_Meant_To_Be-(TOTAL005B)-16BIT-WEB-FLAC-2026-MARiBOR
2026-05-08 07:54:41 Trance 6 39 Vascotia-Gravity_and_Time_Traveller-(SDM158)-WEB-2026-wAx
2026-05-08 07:53:13 Trance 4 17 Nakhiya-PANGEA-(GERT1138)-SINGLE-WEB-2026-wAx
2026-05-08 07:53:11 Trance 5 21 Rene_Ablaze_and_Josie_Sandfeld-Beyond_The_Sky-(FS291)-WEB-2026-wAx
2026-05-08 07:52:32 Trance 4 12 Leon_Bolier-Trouble_(Extended_Mix)-(MM16790)-SINGLE-WEB-2026-wAx
2026-05-08 07:52:17 Trance 4 14 Juan_Alminana_Obando-The_Last_Horizon-(RT003)-SINGLE-WEB-2026-wAx
2026-05-08 07:52:16 Trance 5 22 Impulse_Wave_and_MAQ-Beyond_The_Surge-(FM178)-WEB-2026-wAx
2026-05-08 07:52:15 Trance 5 29 Est_Gaza-Nostalgia-(PXM078)-WEB-2026-wAx
2026-05-08 07:51:35 Trance 6 33 Grande_Piano-Oceans_Wrath-(PXM079)-WEB-2026-wAx
2026-05-08 07:50:43 Trance 5 21 DJ_Smash-FTMH-(HPRN035)-WEB-2026-wAx
2026-05-08 07:50:26 Trance 4 14 DJ_K-Mixx-Intergalactic_(Extended_Mix)-(ELPIDAMUSIC133)-SINGLE-WEB-2026-wAx
2026-05-08 07:50:26 Trance 4 15 Comacode-We_Will_Survive_(Extended_Mix)-(OUT302)-SINGLE-WEB-2026-wAx
2026-05-08 07:50:25 Trance 5 21 Bigtopo_and_Itonica-Illusion-(ITPG289)-WEB-2026-wAx
2026-05-08 07:49:21 Trance 5 32 Baby_Doc_and_Mijk_van_Dijk-Wild_and_Loose-(PFTFL259)-WEB-2026-wAx
2026-05-08 07:48:52 Trance 4 14 Ariel_Music-Overdrive_(Extended_Mix)-(RRT024)-SINGLE-WEB-2026-wAx
2026-05-08 07:41:26 Techno 8 57 Aidan_Rudd-Cultivar-(ALREP006)-WEB-2026-PTC
2026-05-08 07:37:24 Dance 5 8 Gregor_Le_Dahl_-_Spicy_(Extended_Mix)-(00199957885485)-SINGLE-WEB-2026-ZzZz
2026-05-08 07:24:53 Dance 5 6 STEINPIMMEL_-_Schniedel_Im_Lidl-(RLS00447780)-SINGLE-WEB-DE-2026-ZzZz
2026-05-08 07:18:06 Techno 7 121 Juan_Trujillo-Nothing_To_Fear-GYNOID275-16BIT-WEB-FLAC-2026-WAVED
2026-05-08 07:18:02 Techno 7 157 FORMS-Axis_Motus-SEN016-16BIT-WEB-FLAC-2026-WAVED
2026-05-08 07:17:13 Techno 6 47 FORMS-Axis_Motus-SEN016-WEB-2026-WAV
2026-05-08 07:16:10 Dance 5 7 BASSKONIG_-_NOCH_EIN_LIED-(825293684177)-SINGLE-WEB-DE-2026-ZzZz
2026-05-08 07:14:14 Dance 5 73 ONeal_and_FR3SH_TrX-Help-(XWAVEZ0242026)-24BIT-WEB-FLAC-2026-MARiBOR
2026-05-08 07:07:37 Hardcore 6 12 Suae_x_Technikore_-_In_The_pool-(EB007)-WEB-2026-ZzZz
2026-05-08 07:06:02 Techno 8 144 Shaun_Moses_and_AARDY-Raw_Aesthetic-(IAR397)-16BIT-WEB-FLAC-2026-PTC
2026-05-08 07:05:56 Trance 4 13 Will_Rees_x_Nu_Spirit-Exodus_(Extended_Mix)-(FSOE998)-SINGLE-WEB-2026-wAx
2026-05-08 07:04:51 Trance 4 13 T78-New_Horizon-(ATK212-1)-SINGLE-WEB-2026-wAx
2026-05-08 07:04:29 Trance 7 42 Scott_Ramsay-Stargazing_and_Elevatus-(EGMSIN505)-WEB-2026-wAx
2026-05-08 07:04:04 Trance 5 24 Scott_Mac-Follow_Me-(AMAM459)-WEB-2026-wAx
2026-05-08 07:04:00 Trance 5 19 Johan_Gielen-Ready_For_The_Jump-(BH17470)-WEB-2026-wAx
2026-05-08 07:03:17 Trance 5 25 Jackob_Roenald-past_present-(PTN176)-WEB-2026-wAx
2026-05-08 07:02:50 Trance 4 12 EDU_BRAVO-Reality_Reboot_(Extended_Mix)-(EAST077)-SINGLE-WEB-2026-wAx
2026-05-08 07:02:30 Trance 4 12 Beatsole-Synthesis_(Extended_Mix)-(NM093)-SINGLE-WEB-2026-wAx
2026-05-08 06:57:54 Trance 4 12 Armin_van_Buuren_and_Glockenbach-Sun_Shines_On_Me_(Rising_Star_Remix)-(ARMAS3589D)-SINGLE-WEB-2026-wAx
2026-05-08 06:57:10 Techno 9 159 Milo_Raad-A_Perfect_Storm_EP-DRLDV004-16BIT-WEB-FLAC-2026-WAVED
2026-05-08 06:54:51 Techno 10 221 Mython-Hertsmere_Road_EP-PRRUKBLK158-16BIT-WEB-FLAC-2026-WAVED
2026-05-08 06:54:08 Techno 10 225 Mython-Hertsmere_Road_EP-(PRRUKBLK158)-16BIT-WEB-FLAC-2026-PTC
2026-05-08 06:53:47 Techno 8 132 PAB165-Blackwall_Tunnel_EP-PRRUKD26222-16BIT-WEB-FLAC-2026-WAVED
2026-05-08 06:53:39 Techno 8 130 Rheak-Lost_In_Time_EP-SPSERIES25025D-16BIT-WEB-FLAC-2026-WAVED
2026-05-08 06:50:26 Dance 5 6 Kitsch_and_Krawall_feat_Hollizia_-_Wenn_Wir_tanzen-(4070169031791)-SINGLE-WEB-DE-2026-ZzZz
2026-05-08 06:40:36 Techno 8 48 PAB165-Blackwall_Tunnel_EP-(PRRUKD26222)-WEB-2026-PTC
2026-05-08 06:39:35 Dance 6 14 Tigerlily_x_Alex_Pizzuti_x_BadVice_DJ_-_I_Wanna_Go-(0827568015112)-WEB-2026-ZzZz
2026-05-08 06:38:36 Techno 8 44 Rheak-Lost_In_Time_EP-(SPSERIES25025D)-WEB-2026-PTC
2026-05-08 06:36:42 Techno 9 62 Milo_Raad-A_Perfect_Storm_EP-(DRLDV004)-WEB-2026-PTC
2026-05-08 06:34:13 Techno 10 75 Mython-Hertsmere_Road_EP-(PRRUKBLK158)-WEB-2026-PTC
2026-05-08 06:26:04 Dance 5 7 KALUMA_x_MXM_x_Chris_Van_Dutch_feat_Marlon_Falter_-_Auf_uns-(JFR131)-SINGLE-WEB-DE-2026-ZzZz
2026-05-08 06:15:05 Trance 5 75 Rene_Ablaze_and_Josie_Sandfeld-Beyond_The_Sky-(FS291)-16BIT-WEB-FLAC-2026-MARiBOR
2026-05-08 06:15:03 Techno 5 97 Mindblast_x_Nick_Prox-Victorious-(HUF336)-24BIT-WEB-FLAC-2026-MARiBOR
2026-05-08 06:14:35 Dance 4 20 Yellow_Pvnk-Dreams-(BAB458E)-SINGLE-16BIT-WEB-FLAC-2026-MARiBOR
2026-05-08 06:11:59 Techno 9 106 Echology-Mirage-(GRSCLM157)-WEB-2026-PTC
2026-05-08 06:05:29 Techno 7 34 aaanddreux-Shot_Mind-(KUBE140)-WEB-2026-PTC
2026-05-08 06:05:28 Techno 6 27 Tao_Andra-Blue_Reflex-(TERM254)-WEB-2026-PTC
2026-05-08 06:02:47 Techno 7 38 Marco_Lecaro-Turn_the_Night-(ORANGE282)-WEB-2026-PTC
2026-05-08 06:02:46 Dance 5 7 Ilyaa_and_CIBUS_-_Party_Fixed_(Extended_Mix)-(5063812332917)-SINGLE-WEB-2026-ZzZz
2026-05-08 06:01:04 Dance 5 5 ILYAA_and_CIBUS_-_Party_Fixed-(5063959573297)-SINGLE-WEB-2026-ZzZz
2026-05-08 05:55:35 Techno 8 50 Damne-Rider-(SWAY99)-WEB-2026-PTC
2026-05-08 05:52:52 Techno 7 44 Juan_Trujillo-Nothing_to_Fear-(GYNOID275)-WEB-2026-PTC
2026-05-08 05:50:34 Dance 8 40 W35TPHAL_feat_FAYE_WEST_-_Wie_Soll_Ein_Mensch_Das_ertragen-(WFW260522)-WEB-DE-2026-ZzZz
2026-05-08 05:47:05 Techno 7 39 Ross_Hillier-Anhedonia_EP-(UT113)-WEB-2026-PTC
2026-05-08 05:42:33 Techno 8 51 Shaun_Moses_and_AARDY-Raw_Aesthetic-(IAR397)-WEB-2026-PTC
2026-05-08 05:40:54 Trance 30 453 VA-Hypnotised_Presents_Balearic_Trance-(BHCD264)-WEB-2026-JUSTiFY
2026-05-08 05:34:14 Dance 6 107 Flakee-Leaving_You__Got_To_Let_U_Go-(BKRP105)-16BIT-WEB-FLAC-2026-MARiBOR
2026-05-08 05:33:50 Dance 5 53 NextJen-Breaking_Free-(ONESEVENTY231)-16BIT-WEB-FLAC-2026-MARiBOR
2026-05-08 05:33:11 Trance 6 21 Talla_2XLC_and_Clara_Yates_-_One-(TCR069)-WEB-2026-JUSTiFY
2026-05-08 05:25:59 Hardcore 7 37 Flakee_-_Leaving_You___Got_To_Let_U_Go-(BKRP105)-WEB-2026-ZzZz
2026-05-08 05:25:55 Dance 5 5 Pink_Panda_-_No_Limits_(Extended_Mix)-(5063845235865)-SINGLE-WEB-2026-ZzZz
2026-05-08 05:19:09 Dance 5 5 Pink_Panda_-_No_Limits-(5063925833899)-SINGLE-WEB-2026-ZzZz
2026-05-08 05:13:55 Dance 5 9 Yellow_Pvnk_-_Dreams-(BAB458E)-SINGLE-WEB-2026-ZzZz
2026-05-08 05:13:31 Trance 5 23 Craig_Connelly_Feat._Jennifer_Rene-No_One_Like_You-(ARMD1236A)-WEB-2015-UKHx
2026-05-08 04:59:00 Dance 5 13 Javiolo_and_Sesi_vs_Kabba_-_Faster-(TTH14)-SINGLE-WEB-2026-ZzZz
2026-05-08 04:51:07 Dance 5 4 N-Tone_and_Emmy_-_Battle_(Quattro_Remix)-(3618110856133)-SINGLE-WEB-2026-ZzZz
2026-05-08 04:43:36 Dance 6 14 ONeal_and_FR3SH_TrX_-_Help-(XWAVEZ0242026)-WEB-2026-ZzZz
2026-05-08 04:29:58 Dance 5 4 2_Engel_and_Charlie_-_Tanz_Tanz_Tanz-(047752337039)-SINGLE-WEB-DE-2026-ZzZz
2026-05-08 04:27:41 Dance 8 37 Ian_Redman_and_Rob_Cain_-_Blah_Blah_Blah-(9361385303126)-WEB-2026-ZzZz
2026-05-08 04:11:44 Trance 7 141 Simon_Gregory-This_Time-(ASR1035)-16BiT-WEB-FLAC-2026-L4L
2026-05-08 04:08:20 Techno 5 21 Andrea_Saitta-Quiver_Ep-EP-WEB-2026-ZLS
2026-05-08 04:07:11 Techno 5 57 Andrea_Saitta-Quiver_Ep-EP-16BIT-WEB-FLAC-2026-HFC
2026-05-08 03:00:48 Dance 25 213 VA_-_Beatport_May_Best_New_-_Dance-WEB-2026
2026-05-08 02:59:47 Dance 26 213 VA_-_Beatport_The_Dance_Shortlist_-_April-WEB-2026
2026-05-08 02:59:16 Dance 14 125 VA_-_Beatport_Superlover_-_Hot_Cue_Chart-WEB-2026
2026-05-08 02:58:52 Dance 23 283 VA_-_Beatport_Joe_T_Vannelli_-_May_2026_Chart-WEB-2026
2026-05-08 02:57:54 Dance 14 147 VA_-_Beatport_Naayaab_-_Welcome_To_The_Jungle_Chart-WEB-2026
2026-05-08 02:57:30 Dance 14 129 VA_-_Beatport_Difler_-_Best_Indie_Dance_Chart-WEB-2026
2026-05-08 02:53:10 Trance 14 123 VA_-_Beatport_Ron_With_Leeds_-_Aprils_Chart-WEB-2026
2026-05-08 02:52:26 Trance 14 158 VA_-_Beatport_Daybreakers_-_SelectionsApril_Chart-WEB-2026
2026-05-08 02:51:51 Trance 57 802 VA_-_Beatport_Weekend_Picks_2026_Trance_Week_18-WEB-2026
2026-05-08 02:49:07 Trance 24 349 VA_-_Beatport_The_Psy-Trance_Shortlist_-_April-WEB-2026
2026-05-08 02:47:53 Trance 29 351 VA_-_Beatport_May_Best_New_Hype_-_Trance-WEB-2026
2026-05-08 02:46:20 Trance 6 77 Forbidden_Mind-Path_of_Light-(PXM076)-WEB_FLAC-2026-SCMT